Meteorología y climatología de Navarra
Datos de la estación - Meteo Navarra

Estación de Tudela (Montes del Cierzo) GN

Altitud 314 m.


Datos desde el 02/08/2020 hasta el 03/08/2020 en horario solar
Los datos son PROVISIONALES

Anterior Página 1 de 1 Siguiente Descargar: Formato para Excel 2000 o superior   Formato csv   Formato para OpenOffice Calc
Fecha Temperatura Humedad relativa Radiación global Insolación Precipitación Vel. viento 10 m Vel. viento 10 m Dir. viento 10 m
ºC % W/m² s l/m² m/s km/h º
02/08/2020 0:00 20.8 72 0.0 0 0.0 4.0 14.4 332
02/08/2020 0:10 20.9 72 0.0 0 0.0 3.1 11.0 326
02/08/2020 0:20 20.8 72 0.0 0 0.0 2.7 9.6 328
02/08/2020 0:30 20.7 72 0.0 0 0.0 2.8 9.9 327
02/08/2020 0:40 20.7 72 0.0 0 0.0 3.4 12.4 323
02/08/2020 0:50 20.8 72 0.0 0 0.0 3.3 12.0 326
02/08/2020 1:00 20.7 72 0.0 0 0.0 3.7 13.2 325
02/08/2020 1:10 20.8 71 0.0 0 0.0 3.0 10.9 326
02/08/2020 1:20 20.7 71 0.0 0 0.0 3.7 13.3 315
02/08/2020 1:30 20.6 72 0.0 0 0.0 4.3 15.3 313
02/08/2020 1:40 20.6 72 0.0 0 0.0 4.0 14.5 315
02/08/2020 1:50 20.7 71 0.0 0 0.0 4.6 16.4 313
02/08/2020 2:00 20.8 70 0.0 0 0.0 5.8 20.8 312
02/08/2020 2:10 20.9 69 0.0 0 0.0 5.0 17.9 315
02/08/2020 2:20 20.9 69 0.0 0 0.0 4.5 16.1 318
02/08/2020 2:30 21.0 69 0.0 0 0.0 4.9 17.5 314
02/08/2020 2:40 20.8 70 0.0 0 0.0 4.4 16.0 314
02/08/2020 2:50 20.6 69 0.0 0 0.0 5.4 19.6 310
02/08/2020 3:00 20.4 71 0.0 0 0.0 5.3 19.0 313
02/08/2020 3:10 20.0 72 0.0 0 0.0 4.9 17.7 310
02/08/2020 3:20 19.8 72 0.0 0 0.0 5.3 19.1 312
02/08/2020 3:30 19.7 72 0.0 0 0.0 5.4 19.4 313
02/08/2020 3:40 19.7 71 0.0 0 0.0 4.3 15.6 310
02/08/2020 3:50 19.6 71 0.0 0 0.0 5.0 17.9 314
02/08/2020 4:00 19.7 70 0.0 0 0.0 5.0 17.9 317
02/08/2020 4:10 19.6 70 0.0 0 0.0 4.9 17.5 318
02/08/2020 4:20 19.5 70 0.0 0 0.0 4.6 16.7 318
02/08/2020 4:30 19.4 70 0.0 0 0.0 4.2 15.1 318
02/08/2020 4:40 19.3 71 0.0 0 0.0 4.0 14.3 317
02/08/2020 4:50 19.2 72 0.0 0 0.0 4.2 15.3 313
02/08/2020 5:00 19.1 73 0.0 0 0.0 3.9 14.0 313
02/08/2020 5:10 19.0 73 0.0 0 0.0 4.3 15.4 312
02/08/2020 5:20 19.0 73 9.0 0 0.0 4.8 17.2 310
02/08/2020 5:30 19.1 73 30.2 210 0.0 4.4 15.9 309
02/08/2020 5:40 19.3 72 48.8 448 0.0 4.8 17.3 309
02/08/2020 5:50 19.6 72 69.2 492 0.0 4.4 15.9 310
02/08/2020 6:00 20.0 71 103.5 600 0.0 4.4 15.8 313
02/08/2020 6:10 20.3 70 131.6 600 0.0 4.7 16.9 317
02/08/2020 6:20 20.6 69 161.8 600 0.0 4.5 16.1 320
02/08/2020 6:30 20.8 67 194.0 600 0.0 4.7 16.8 323
02/08/2020 6:40 21.3 66 225.4 600 0.0 4.0 14.4 323
02/08/2020 6:50 21.7 64 257.1 600 0.0 4.6 16.5 322
02/08/2020 7:00 21.7 64 291.7 600 0.0 4.7 16.9 317
02/08/2020 7:10 22.3 61 325.1 600 0.0 4.7 17.0 320
02/08/2020 7:20 22.4 60 356.9 600 0.0 4.9 17.5 321
02/08/2020 7:30 23.0 58 391.5 600 0.0 5.4 19.3 331
02/08/2020 7:40 23.0 57 423.4 588 0.0 5.3 18.9 339
02/08/2020 7:50 23.5 55 467.4 600 0.0 4.9 17.7 328
02/08/2020 8:00 23.7 54 525.0 600 0.0 6.0 21.6 334
02/08/2020 8:10 23.8 54 541.3 576 0.0 5.8 21.0 326
02/08/2020 8:20 23.7 54 554.1 600 0.0 5.9 21.1 317
02/08/2020 8:30 23.8 54 501.4 474 0.0 5.5 19.8 331
02/08/2020 8:40 24.3 52 589.6 536 0.0 5.8 20.9 334
02/08/2020 8:50 24.5 51 548.7 402 0.0 5.8 20.9 336
02/08/2020 9:00 24.0 53 575.3 388 0.0 5.7 20.4 333
02/08/2020 9:10 24.5 52 623.1 494 0.0 6.5 23.4 337
02/08/2020 9:20 24.9 51 658.0 526 0.0 6.3 22.6 344
02/08/2020 9:30 25.1 49 587.2 384 0.0 6.5 23.4 337
02/08/2020 9:40 25.2 50 858.0 594 0.0 7.1 25.5 347
02/08/2020 9:50 25.6 47 891.0 544 0.0 7.3 26.2 348
02/08/2020 10:00 26.1 46 781.8 540 0.0 6.5 23.5 347
02/08/2020 10:10 25.3 48 612.6 532 0.0 6.8 24.5 355
02/08/2020 10:20 24.5 50 377.5 52 0.0 6.4 23.1 348
02/08/2020 10:30 24.7 50 446.5 160 0.0 6.2 22.2 346
02/08/2020 10:40 24.2 51 418.5 122 0.0 7.8 28.2 347
02/08/2020 10:50 24.3 50 452.2 96 0.0 7.2 25.9 342
02/08/2020 11:00 24.7 49 500.3 242 0.0 6.8 24.3 340
02/08/2020 11:10 24.9 48 449.1 234 0.0 6.9 24.7 335
02/08/2020 11:20 25.1 47 564.1 600 0.0 6.5 23.3 335
02/08/2020 11:30 25.6 45 546.2 414 0.0 7.1 25.4 345
02/08/2020 11:40 26.1 44 634.7 434 0.0 6.0 21.5 331
02/08/2020 11:50 26.6 42 1043.0 568 0.0 6.2 22.4 318
02/08/2020 12:00 26.7 41 1010.0 600 0.0 7.2 25.8 311
02/08/2020 12:10 26.7 42 979.0 600 0.0 7.7 27.6 310
02/08/2020 12:20 26.6 42 965.0 600 0.0 6.7 24.2 310
02/08/2020 12:30 26.9 42 982.0 600 0.0 6.7 24.2 311
02/08/2020 12:40 27.1 40 953.0 600 0.0 6.8 24.5 323
02/08/2020 12:50 27.1 39 948.0 600 0.0 7.3 26.1 314
02/08/2020 13:00 27.3 38 952.0 600 0.0 6.9 25.0 312
02/08/2020 13:10 27.6 39 840.0 498 0.0 6.7 24.1 341
02/08/2020 13:20 27.3 41 857.0 600 0.0 7.3 26.1 352
02/08/2020 13:30 27.2 41 837.0 600 0.0 7.0 25.3 351
02/08/2020 13:40 27.3 40 804.0 600 0.0 7.0 25.3 344
02/08/2020 13:50 27.3 40 559.5 406 0.0 7.0 25.0 352
02/08/2020 14:00 26.4 42 573.1 482 0.0 7.7 27.8 350
02/08/2020 14:10 26.4 43 464.8 202 0.0 7.3 26.4 343
02/08/2020 14:20 25.9 43 457.5 274 0.0 9.0 32.4 347
02/08/2020 14:30 25.2 45 454.2 236 0.0 8.9 32.1 351
02/08/2020 14:40 24.8 46 399.3 0 0.0 8.7 31.2 346
02/08/2020 14:50 24.6 45 370.8 0 0.0 7.9 28.6 349
02/08/2020 15:00 24.8 46 337.7 0 0.0 7.4 26.8 351
02/08/2020 15:10 24.5 46 325.0 0 0.0 8.3 30.0 350
02/08/2020 15:20 24.1 48 286.3 0 0.0 7.4 26.7 355
02/08/2020 15:30 24.1 48 279.7 0 0.0 8.2 29.6 355
02/08/2020 15:40 23.8 48 310.1 6 0.0 8.4 30.3 350
02/08/2020 15:50 24.1 48 318.2 82 0.0 8.4 30.2 351
02/08/2020 16:00 23.6 49 236.7 0 0.0 7.9 28.4 353
02/08/2020 16:10 23.6 49 219.0 0 0.0 7.7 27.8 348
02/08/2020 16:20 23.4 49 187.2 0 0.0 7.4 26.5 353
02/08/2020 16:30 23.0 50 157.1 0 0.0 8.0 28.7 355
02/08/2020 16:40 22.7 51 139.6 0 0.0 7.2 26.0 355
02/08/2020 16:50 22.6 51 143.0 0 0.0 7.3 26.2 356
02/08/2020 17:00 22.4 51 121.2 0 0.0 7.0 25.1 358
02/08/2020 17:10 22.2 50 90.2 0 0.0 7.5 27.0 352
02/08/2020 17:20 22.0 51 74.5 0 0.0 6.3 22.7 352
02/08/2020 17:30 22.0 51 76.1 0 0.0 5.9 21.3 353
02/08/2020 17:40 22.1 51 96.1 0 0.0 6.7 24.1 346
02/08/2020 17:50 22.2 50 105.1 0 0.0 7.2 25.8 343
02/08/2020 18:00 22.3 50 120.1 12 0.0 6.2 22.4 348
02/08/2020 18:10 22.4 50 131.7 500 0.0 6.5 23.4 346
02/08/2020 18:20 22.5 50 91.0 168 0.0 6.3 22.5 341
02/08/2020 18:30 22.3 50 49.1 0 0.0 5.6 20.1 341
02/08/2020 18:40 21.8 52 25.7 0 0.0 6.6 23.8 351
02/08/2020 18:50 21.2 54 21.0 0 0.0 6.9 24.7 351
02/08/2020 19:00 20.7 56 14.6 0 0.0 7.3 26.3 346
02/08/2020 19:10 20.5 57 0.0 0 0.0 6.2 22.2 344
02/08/2020 19:20 20.2 58 0.0 0 0.0 5.3 19.1 344
02/08/2020 19:30 19.8 60 0.0 0 0.0 5.7 20.3 344
02/08/2020 19:40 19.6 61 0.0 0 0.0 4.7 16.9 338
02/08/2020 19:50 19.3 62 0.0 0 0.0 4.2 15.0 333
02/08/2020 20:00 19.2 63 0.0 0 0.0 4.4 15.8 324
02/08/2020 20:10 19.2 63 0.0 0 0.0 4.1 14.6 322
02/08/2020 20:20 18.9 64 0.0 0 0.0 4.2 14.9 320
02/08/2020 20:30 18.9 64 0.0 0 0.0 3.9 13.9 315
02/08/2020 20:40 18.8 65 0.0 0 0.0 3.4 12.2 319
02/08/2020 20:50 18.7 65 0.0 0 0.0 3.4 12.1 319
02/08/2020 21:00 18.7 65 0.0 0 0.0 3.5 12.5 320
02/08/2020 21:10 18.7 65 0.0 0 0.0 4.0 14.5 324
02/08/2020 21:20 18.7 66 0.0 0 0.0 4.2 15.2 333
02/08/2020 21:30 18.6 66 0.0 0 0.0 3.7 13.2 332
02/08/2020 21:40 18.5 67 0.0 0 0.0 3.3 11.8 322
02/08/2020 21:50 18.5 66 0.0 0 0.0 2.7 9.6 322
02/08/2020 22:00 18.4 67 0.0 0 0.0 2.9 10.4 332
02/08/2020 22:10 18.3 67 0.0 0 0.0 2.3 8.4 345
02/08/2020 22:20 18.2 68 0.0 0 0.0 3.4 12.3 346
02/08/2020 22:30 18.2 67 0.0 0 0.0 4.2 15.2 341
02/08/2020 22:40 18.2 66 0.0 0 0.0 3.6 12.9 334
02/08/2020 22:50 18.1 66 0.0 0 0.0 2.4 8.8 333
02/08/2020 23:00 18.1 66 0.0 0 0.0 2.0 7.0 320
02/08/2020 23:10 18.2 65 0.0 0 0.0 2.5 8.9 315
02/08/2020 23:20 18.5 63 0.0 0 0.0 3.8 13.8 318
02/08/2020 23:30 18.6 62 0.0 0 0.0 3.5 12.5 317
02/08/2020 23:40 18.6 62 0.0 0 0.0 3.8 13.6 321
02/08/2020 23:50 18.7 61 0.0 0 0.0 4.6 16.6 316
Anterior Página 1 de 1 Siguiente

NOTA: Tipo de datos según el color:
   - Valores diarios o 10 minutos correctos
   - Valores diarios calculados a partir de un número de datos 10 minutos menor que 144 y mayor que 120, o de un número de datos semihorarios menor que 48 y mayor que 40 (caso de las estaciones de INTIA y del Ministerio)
   - Valores diez minutos estimados


Contacto        Enlaces        Aviso legal